createdAt,value
2022-09-09T00:00:20.609Z,8.60
2022-09-09T00:01:20.608Z,8.00
2022-09-09T00:02:20.655Z,7.50
2022-09-09T00:03:20.910Z,7.90
2022-09-09T00:04:20.538Z,8.00
2022-09-09T00:05:20.534Z,8.60
2022-09-09T00:06:20.530Z,8.40
2022-09-09T00:07:20.545Z,8.30
2022-09-09T00:08:20.508Z,8.50
2022-09-09T00:09:20.498Z,8.30
2022-09-09T00:10:20.493Z,7.30
2022-09-09T00:11:20.481Z,8.30
2022-09-09T00:12:20.482Z,7.00
2022-09-09T00:13:20.488Z,7.40
2022-09-09T00:14:20.464Z,7.70
2022-09-09T00:15:20.457Z,7.90
2022-09-09T00:16:20.532Z,7.50
2022-09-09T00:17:20.440Z,8.80
2022-09-09T00:18:20.446Z,8.40
2022-09-09T00:19:20.416Z,7.40
2022-09-09T00:20:20.398Z,8.30
2022-09-09T00:21:20.391Z,9.00
2022-09-09T00:22:20.388Z,8.10
2022-09-09T00:23:20.371Z,7.40
2022-09-09T00:24:20.391Z,7.40
2022-09-09T00:25:20.414Z,7.50
2022-09-09T00:26:20.359Z,9.30
2022-09-09T00:27:20.335Z,8.80
2022-09-09T00:28:20.336Z,7.70
2022-09-09T00:29:20.322Z,8.90
2022-09-09T00:30:20.317Z,6.80
2022-09-09T00:31:20.391Z,7.80
2022-09-09T00:32:20.308Z,7.80
2022-09-09T00:33:20.292Z,6.70
2022-09-09T00:34:20.304Z,8.10
2022-09-09T00:35:20.299Z,11.00
2022-09-09T00:36:20.260Z,9.40
2022-09-09T00:37:20.263Z,8.30
2022-09-09T00:38:20.296Z,7.90
2022-09-09T00:39:20.236Z,8.80
2022-09-09T00:40:20.235Z,7.80
2022-09-09T00:41:20.221Z,11.60
2022-09-09T00:42:20.215Z,9.50
2022-09-09T00:43:20.203Z,12.70
2022-09-09T00:44:20.214Z,8.90
2022-09-09T00:45:20.176Z,7.30
2022-09-09T00:46:20.185Z,8.80
2022-09-09T00:47:20.185Z,9.20
2022-09-09T00:48:20.156Z,9.10
2022-09-09T00:49:20.159Z,8.60
2022-09-09T00:50:20.135Z,8.70
2022-09-09T00:51:20.129Z,7.30
2022-09-09T00:52:20.201Z,9.10
2022-09-09T00:53:20.111Z,9.10
2022-09-09T00:54:20.102Z,7.10
2022-09-09T00:55:20.114Z,8.00
2022-09-09T00:56:20.086Z,7.70
2022-09-09T00:57:20.086Z,7.50
2022-09-09T00:58:20.083Z,7.50
2022-09-09T00:59:20.065Z,9.20
2022-09-09T01:00:20.079Z,7.90
2022-09-09T01:01:20.114Z,9.00
2022-09-09T01:02:20.110Z,7.40
2022-09-09T01:03:20.025Z,8.00
2022-09-09T01:04:20.022Z,9.00
2022-09-09T01:05:20.014Z,9.20
2022-09-09T01:06:20.037Z,8.90
2022-09-09T01:07:20.004Z,9.40
2022-09-09T01:08:19.995Z,8.40
2022-09-09T01:09:20.050Z,8.40
2022-09-09T01:10:19.978Z,8.00
2022-09-09T01:11:19.989Z,7.60
2022-09-09T01:12:19.958Z,8.50
2022-09-09T01:13:19.949Z,7.60
2022-09-09T01:14:19.950Z,8.60
2022-09-09T01:15:19.929Z,8.20
2022-09-09T01:16:20.007Z,8.00
2022-09-09T01:17:19.915Z,9.70
2022-09-09T01:18:19.913Z,7.70
2022-09-09T01:19:19.901Z,9.30
2022-09-09T01:20:19.890Z,9.00
2022-09-09T01:21:28.930Z,7.80
2022-09-09T01:22:19.907Z,8.90
2022-09-09T01:23:19.863Z,7.20
2022-09-09T01:24:19.868Z,6.60
2022-09-09T01:25:19.846Z,8.20
2022-09-09T01:26:19.892Z,10.20
2022-09-09T01:27:19.829Z,7.00
2022-09-09T01:28:19.868Z,7.80
2022-09-09T01:29:19.826Z,7.90
2022-09-09T01:30:19.819Z,7.30
2022-09-09T01:31:19.895Z,7.90
2022-09-09T01:32:19.801Z,7.90
2022-09-09T01:33:19.788Z,8.00
2022-09-09T01:34:19.811Z,7.20
2022-09-09T01:35:19.781Z,10.40
2022-09-09T01:36:19.767Z,8.10
2022-09-09T01:37:19.757Z,8.60
2022-09-09T01:38:19.766Z,6.90
2022-09-09T01:39:19.740Z,7.90
2022-09-09T01:40:19.752Z,8.20
2022-09-09T01:41:19.758Z,7.10
2022-09-09T01:42:19.710Z,8.20
2022-09-09T01:43:19.708Z,7.20
2022-09-09T01:44:19.704Z,8.10
2022-09-09T01:45:19.687Z,8.20
2022-09-09T01:46:19.742Z,6.80
2022-09-09T01:47:19.744Z,7.70
2022-09-09T01:48:19.729Z,8.50
2022-09-09T01:49:19.721Z,7.40
2022-09-09T01:50:19.656Z,7.30
2022-09-09T01:51:19.666Z,7.60
2022-09-09T01:52:19.662Z,8.30
2022-09-09T01:53:19.633Z,7.40
2022-09-09T01:54:19.628Z,6.90
2022-09-09T01:55:19.618Z,6.70
2022-09-09T01:56:19.604Z,7.40
2022-09-09T01:57:19.618Z,6.80
2022-09-09T01:58:19.585Z,6.70
2022-09-09T01:59:19.610Z,6.80
2022-09-09T02:00:19.568Z,7.00
2022-09-09T02:01:19.658Z,7.80
2022-09-09T02:02:19.619Z,7.20
2022-09-09T02:03:19.550Z,8.80
2022-09-09T02:04:19.544Z,8.00
2022-09-09T02:05:19.557Z,7.50
2022-09-09T02:06:19.529Z,7.40
2022-09-09T02:07:19.532Z,8.40
2022-09-09T02:08:19.526Z,8.60
2022-09-09T02:09:19.510Z,7.30
2022-09-09T02:10:19.704Z,7.60
2022-09-09T02:11:19.487Z,8.10
2022-09-09T02:12:19.478Z,8.10
2022-09-09T02:13:19.495Z,8.00
2022-09-09T02:14:19.469Z,6.80
2022-09-09T02:15:19.462Z,9.10
2022-09-09T02:16:19.498Z,10.20
2022-09-09T02:17:19.460Z,7.10
2022-09-09T02:18:19.437Z,7.30
2022-09-09T02:19:19.436Z,6.90
2022-09-09T02:20:19.415Z,7.60
2022-09-09T02:21:19.416Z,8.80
2022-09-09T02:22:19.429Z,7.40
2022-09-09T02:23:19.433Z,7.90
2022-09-09T02:24:19.395Z,5.90
2022-09-09T02:25:19.383Z,9.40
2022-09-09T02:26:19.375Z,8.70
2022-09-09T02:27:19.387Z,10.60
2022-09-09T02:28:19.350Z,7.70
2022-09-09T02:29:19.367Z,8.10
2022-09-09T02:30:19.359Z,9.10
2022-09-09T02:31:19.332Z,9.30
2022-09-09T02:32:19.335Z,6.70
2022-09-09T02:33:19.320Z,7.40
2022-09-09T02:34:19.334Z,7.00
2022-09-09T02:35:19.316Z,5.80
2022-09-09T02:36:19.321Z,9.40
2022-09-09T02:37:19.289Z,8.70
2022-09-09T02:38:19.325Z,7.00
2022-09-09T02:39:19.267Z,7.10
2022-09-09T02:40:19.279Z,7.70
2022-09-09T02:41:19.250Z,7.70
2022-09-09T02:42:19.234Z,7.40
2022-09-09T02:43:19.231Z,7.20
2022-09-09T02:44:19.259Z,8.20
2022-09-09T02:45:19.210Z,7.60
2022-09-09T02:46:19.265Z,9.70
2022-09-09T02:47:19.204Z,7.30
2022-09-09T02:48:19.201Z,7.90
2022-09-09T02:49:19.183Z,11.10
2022-09-09T02:50:19.187Z,6.70
2022-09-09T02:51:19.167Z,6.80
2022-09-09T02:52:19.180Z,6.80
2022-09-09T02:53:19.154Z,8.90
2022-09-09T02:54:19.136Z,7.20
2022-09-09T02:55:19.131Z,7.40
2022-09-09T02:56:19.120Z,8.90
2022-09-09T02:57:19.159Z,6.50
2022-09-09T02:58:19.108Z,9.10
2022-09-09T02:59:19.108Z,7.40
2022-09-09T03:00:19.102Z,6.20
2022-09-09T03:01:19.162Z,7.30
2022-09-09T03:02:19.103Z,7.00
2022-09-09T03:03:19.147Z,8.00
2022-09-09T03:04:19.055Z,9.10
2022-09-09T03:05:19.048Z,7.60
2022-09-09T03:06:19.041Z,7.10
2022-09-09T03:07:19.034Z,8.50
2022-09-09T03:08:19.019Z,8.20
2022-09-09T03:09:19.058Z,5.60
2022-09-09T03:10:19.005Z,8.30
2022-09-09T03:11:18.994Z,6.50
2022-09-09T03:12:18.991Z,6.20
2022-09-09T03:13:18.999Z,6.00
2022-09-09T03:14:18.981Z,7.20
2022-09-09T03:15:19.054Z,7.00
2022-09-09T03:16:18.996Z,7.60
2022-09-09T03:17:18.962Z,6.40
2022-09-09T03:18:18.941Z,7.60
2022-09-09T03:19:18.934Z,6.50
2022-09-09T03:20:18.968Z,8.00
2022-09-09T03:21:18.965Z,8.20
2022-09-09T03:22:18.913Z,7.70
2022-09-09T03:23:18.902Z,7.10
2022-09-09T03:24:19.001Z,6.80
2022-09-09T03:25:18.900Z,8.90
2022-09-09T03:26:18.886Z,6.30
2022-09-09T03:27:18.898Z,6.10
2022-09-09T03:28:18.865Z,7.20
2022-09-09T03:29:18.862Z,7.40
2022-09-09T03:30:18.852Z,8.40
2022-09-09T03:31:18.903Z,8.70
2022-09-09T03:32:18.835Z,7.30
2022-09-09T03:33:18.849Z,8.20
2022-09-09T03:34:18.814Z,6.60
2022-09-09T03:35:18.812Z,7.90
2022-09-09T03:36:18.813Z,7.90
2022-09-09T03:37:18.837Z,7.50
2022-09-09T03:38:18.785Z,9.00
2022-09-09T03:39:18.795Z,7.90
2022-09-09T03:40:18.812Z,8.00
2022-09-09T03:41:18.764Z,8.00
2022-09-09T03:42:18.747Z,7.10
2022-09-09T03:43:18.738Z,9.20
2022-09-09T03:44:18.780Z,9.30
2022-09-09T03:45:18.754Z,9.10
2022-09-09T03:46:18.758Z,9.00
2022-09-09T03:47:18.717Z,7.30
2022-09-09T03:48:18.769Z,8.70
2022-09-09T03:49:18.701Z,7.80
2022-09-09T03:50:18.711Z,8.00
2022-09-09T03:51:18.695Z,9.20
2022-09-09T03:52:23.009Z,9.20
2022-09-09T03:53:19.667Z,9.00
2022-09-09T03:54:18.652Z,7.30
2022-09-09T03:55:18.672Z,8.10
2022-09-09T03:56:18.642Z,8.30
2022-09-09T03:57:18.636Z,9.00
2022-09-09T03:58:18.652Z,7.50
2022-09-09T03:59:18.614Z,7.50
2022-09-09T04:00:18.612Z,8.70
2022-09-09T04:01:18.753Z,8.40
2022-09-09T04:02:18.667Z,8.40
2022-09-09T04:03:18.587Z,8.00
2022-09-09T04:04:18.571Z,7.80
2022-09-09T04:05:18.579Z,11.00
2022-09-09T04:06:18.552Z,8.80
2022-09-09T04:07:18.572Z,8.30
2022-09-09T04:08:18.534Z,7.90
2022-09-09T04:09:18.527Z,7.70
2022-09-09T04:10:18.523Z,7.90
2022-09-09T04:11:18.515Z,7.00
2022-09-09T04:12:18.545Z,7.90
2022-09-09T04:13:18.507Z,8.80
2022-09-09T04:14:18.508Z,8.00
2022-09-09T04:15:18.484Z,10.50
2022-09-09T04:16:18.525Z,9.20
2022-09-09T04:17:18.470Z,9.10
2022-09-09T04:18:20.116Z,8.10
2022-09-09T04:19:18.471Z,6.90
2022-09-09T04:20:18.440Z,8.90
2022-09-09T04:21:18.423Z,9.60
2022-09-09T04:22:18.418Z,8.20
2022-09-09T04:23:18.416Z,9.00
2022-09-09T04:24:18.441Z,9.00
2022-09-09T04:25:18.431Z,7.50
2022-09-09T04:26:18.414Z,10.00
2022-09-09T04:27:18.416Z,8.20
2022-09-09T04:28:18.378Z,9.40
2022-09-09T04:29:18.407Z,7.60
2022-09-09T04:30:18.446Z,8.00
2022-09-09T04:31:18.399Z,7.80
2022-09-09T04:32:18.341Z,10.00
2022-09-09T04:33:18.328Z,8.70
2022-09-09T04:34:18.339Z,7.40
2022-09-09T04:35:18.338Z,8.80
2022-09-09T04:36:18.331Z,6.80
2022-09-09T04:37:18.310Z,8.50
2022-09-09T04:38:18.298Z,7.80
2022-09-09T04:39:18.387Z,7.80
2022-09-09T04:40:18.360Z,7.00
2022-09-09T04:41:18.274Z,6.70
2022-09-09T04:42:18.286Z,7.30
2022-09-09T04:43:18.261Z,6.70
2022-09-09T04:44:18.278Z,5.50
2022-09-09T04:45:18.244Z,8.60
2022-09-09T04:46:18.233Z,6.30
2022-09-09T04:47:18.230Z,7.10
2022-09-09T04:48:18.265Z,8.20
2022-09-09T04:49:18.199Z,7.10
2022-09-09T04:50:18.332Z,6.80
2022-09-09T04:51:18.235Z,7.10
2022-09-09T04:52:18.187Z,8.60
2022-09-09T04:53:18.170Z,6.90
2022-09-09T04:54:18.182Z,6.70
2022-09-09T04:55:18.167Z,7.60
2022-09-09T04:56:18.157Z,8.70
2022-09-09T04:57:18.977Z,6.50
2022-09-09T04:58:18.119Z,5.70
2022-09-09T04:59:18.120Z,7.20
2022-09-09T05:00:18.155Z,6.20
2022-09-09T05:01:18.123Z,7.10
2022-09-09T05:02:18.145Z,6.30
2022-09-09T05:03:18.086Z,7.50
2022-09-09T05:04:18.080Z,6.80
2022-09-09T05:05:18.075Z,6.90
2022-09-09T05:06:18.128Z,7.00
2022-09-09T05:07:18.063Z,8.90
2022-09-09T05:08:18.059Z,7.20
2022-09-09T05:09:18.053Z,7.00
2022-09-09T05:10:18.040Z,7.00
2022-09-09T05:11:18.110Z,6.40
2022-09-09T05:12:18.033Z,8.20
2022-09-09T05:13:18.014Z,6.50
2022-09-09T05:14:18.007Z,6.70
2022-09-09T05:15:18.004Z,7.80
2022-09-09T05:16:18.062Z,6.30
2022-09-09T05:17:17.969Z,6.20
2022-09-09T05:18:18.139Z,7.80
2022-09-09T05:19:18.015Z,6.00
2022-09-09T05:20:17.978Z,7.80
2022-09-09T05:21:17.984Z,7.70
2022-09-09T05:22:17.997Z,7.80
2022-09-09T05:23:17.933Z,6.40
2022-09-09T05:24:17.961Z,7.00
2022-09-09T05:25:17.905Z,6.60
2022-09-09T05:26:18.192Z,8.30
2022-09-09T05:27:17.912Z,6.80
2022-09-09T05:28:17.890Z,7.50
2022-09-09T05:29:17.892Z,7.70
2022-09-09T05:30:17.866Z,7.80
2022-09-09T05:31:17.983Z,6.30
2022-09-09T05:32:17.845Z,6.60
2022-09-09T05:33:17.850Z,6.10
2022-09-09T05:34:17.843Z,7.10
2022-09-09T05:35:17.830Z,6.70
2022-09-09T05:36:17.815Z,8.40
2022-09-09T05:37:17.868Z,8.20
2022-09-09T05:38:17.796Z,8.50
2022-09-09T05:39:17.803Z,8.90
2022-09-09T05:40:18.113Z,7.90
2022-09-09T05:41:17.777Z,6.60
2022-09-09T05:42:17.765Z,5.90
2022-09-09T05:43:17.753Z,8.60
2022-09-09T05:44:17.723Z,7.60
2022-09-09T05:45:17.922Z,7.20
2022-09-09T05:46:17.767Z,7.70
2022-09-09T05:47:17.709Z,8.00
2022-09-09T05:48:17.707Z,7.50
2022-09-09T05:49:17.700Z,6.70
2022-09-09T05:50:17.752Z,8.00
2022-09-09T05:51:17.715Z,7.50
2022-09-09T05:52:17.678Z,8.00
2022-09-09T05:53:18.443Z,8.10
2022-09-09T05:54:17.656Z,6.40
2022-09-09T05:55:17.645Z,8.00
2022-09-09T05:56:17.666Z,6.60
2022-09-09T05:57:17.633Z,8.20
2022-09-09T05:58:17.693Z,7.40
2022-09-09T05:59:17.635Z,6.90
2022-09-09T06:00:17.608Z,6.70
2022-09-09T06:01:17.721Z,6.50
2022-09-09T06:02:17.718Z,9.20
2022-09-09T06:03:17.621Z,8.60
2022-09-09T06:04:17.572Z,7.20
2022-09-09T06:05:17.569Z,8.40
2022-09-09T06:06:17.562Z,8.50
2022-09-09T06:07:17.567Z,8.20
2022-09-09T06:08:17.545Z,8.10
2022-09-09T06:09:18.530Z,7.90
2022-09-09T06:10:17.539Z,8.10
2022-09-09T06:11:17.517Z,7.90
2022-09-09T06:12:17.511Z,7.80
2022-09-09T06:13:17.546Z,8.30
2022-09-09T06:14:17.763Z,8.00
2022-09-09T06:15:17.483Z,6.10
2022-09-09T06:16:17.537Z,7.00
2022-09-09T06:17:17.489Z,6.30
2022-09-09T06:18:17.448Z,8.90
2022-09-09T06:19:17.468Z,8.00
2022-09-09T06:20:17.450Z,7.70
2022-09-09T06:21:17.534Z,7.70
2022-09-09T06:22:17.496Z,6.90
2022-09-09T06:23:17.431Z,8.00
2022-09-09T06:24:17.407Z,6.30
2022-09-09T06:25:17.458Z,7.10
2022-09-09T06:26:17.392Z,8.60
2022-09-09T06:27:17.408Z,8.10
2022-09-09T06:28:17.375Z,8.50
2022-09-09T06:29:17.380Z,6.60
2022-09-09T06:30:17.363Z,5.70
2022-09-09T06:31:17.378Z,6.60
2022-09-09T06:32:17.360Z,7.20
2022-09-09T06:33:17.407Z,7.90
2022-09-09T06:34:17.330Z,8.00
2022-09-09T06:35:17.317Z,7.30
2022-09-09T06:36:17.303Z,7.20
2022-09-09T06:37:17.356Z,6.30
2022-09-09T06:38:17.317Z,7.20
2022-09-09T06:39:17.285Z,6.50
2022-09-09T06:40:17.317Z,7.90
2022-09-09T06:41:17.288Z,7.30
2022-09-09T06:42:17.268Z,6.80
2022-09-09T06:43:17.295Z,6.90
2022-09-09T06:44:17.258Z,6.60
2022-09-09T06:45:17.353Z,6.10
2022-09-09T06:46:17.273Z,6.50
2022-09-09T06:47:17.233Z,6.40
2022-09-09T06:48:17.229Z,6.10
2022-09-09T06:49:17.244Z,6.60
2022-09-09T06:50:17.201Z,6.30
2022-09-09T06:51:17.187Z,6.80
2022-09-09T06:52:17.203Z,6.70
2022-09-09T06:53:17.187Z,6.30
2022-09-09T06:54:17.211Z,6.20
2022-09-09T06:55:17.171Z,7.10
2022-09-09T06:56:18.022Z,6.60
2022-09-09T06:57:38.154Z,9.10
2022-09-09T06:58:18.156Z,6.30
2022-09-09T06:59:17.147Z,6.60
2022-09-09T07:00:17.150Z,8.40
2022-09-09T07:01:17.157Z,7.60
2022-09-09T07:02:17.203Z,5.60
2022-09-09T07:03:17.097Z,6.90
2022-09-09T07:04:17.192Z,6.30
2022-09-09T07:05:17.115Z,6.50
2022-09-09T07:06:17.072Z,6.70
2022-09-09T07:07:17.063Z,6.60
2022-09-09T07:08:17.065Z,6.60
2022-09-09T07:09:17.052Z,6.80
2022-09-09T07:10:17.046Z,6.50
2022-09-09T07:11:17.064Z,8.10
2022-09-09T07:12:17.026Z,5.20
2022-09-09T07:13:17.020Z,6.60
2022-09-09T07:14:17.033Z,6.90
2022-09-09T07:15:17.010Z,6.00
2022-09-09T07:16:17.058Z,5.60
2022-09-09T07:17:17.014Z,5.90
2022-09-09T07:18:16.981Z,5.00
2022-09-09T07:19:16.962Z,7.20
2022-09-09T07:20:16.974Z,7.00
2022-09-09T07:21:16.959Z,7.50
2022-09-09T07:22:16.973Z,6.00
2022-09-09T07:23:16.946Z,4.80
2022-09-09T07:24:16.943Z,6.90
2022-09-09T07:25:16.922Z,6.40
2022-09-09T07:26:16.912Z,5.00
2022-09-09T07:27:17.054Z,6.40
2022-09-09T07:28:16.945Z,7.30
2022-09-09T07:29:20.642Z,7.30
2022-09-09T07:30:22.042Z,6.60
2022-09-09T07:31:17.911Z,6.70
2022-09-09T07:32:16.928Z,8.60
2022-09-09T07:33:16.919Z,7.20
2022-09-09T07:34:16.883Z,8.00
2022-09-09T07:35:16.867Z,7.00
2022-09-09T07:36:16.855Z,6.60
2022-09-09T07:37:16.837Z,6.80
2022-09-09T07:38:16.830Z,7.40
2022-09-09T07:39:16.857Z,7.40
2022-09-09T07:40:16.835Z,5.50
2022-09-09T07:41:16.795Z,7.40
2022-09-09T07:42:16.797Z,6.30
2022-09-09T07:43:17.447Z,5.70
2022-09-09T07:44:16.770Z,6.20
2022-09-09T07:45:16.791Z,6.70
2022-09-09T07:46:16.831Z,6.50
2022-09-09T07:47:16.742Z,5.90
2022-09-09T07:48:16.771Z,7.10
2022-09-09T07:49:16.746Z,5.90
2022-09-09T07:50:16.757Z,6.40
2022-09-09T07:51:16.749Z,5.20
2022-09-09T07:52:19.404Z,5.60
2022-09-09T07:53:16.704Z,6.60
2022-09-09T07:54:16.696Z,7.50
2022-09-09T07:55:16.690Z,8.40
2022-09-09T07:56:16.708Z,6.80
2022-09-09T07:57:16.701Z,5.40
2022-09-09T07:58:16.659Z,6.90
2022-09-09T07:59:16.642Z,6.70
2022-09-09T08:00:16.694Z,6.50
2022-09-09T08:01:16.662Z,7.30
2022-09-09T08:02:16.726Z,7.70
2022-09-09T08:03:16.671Z,6.60
2022-09-09T08:04:17.579Z,8.30
2022-09-09T08:05:16.607Z,6.60
2022-09-09T08:06:16.605Z,6.70
2022-09-09T08:07:16.664Z,8.30
2022-09-09T08:08:16.620Z,7.10
2022-09-09T08:09:16.571Z,8.30
2022-09-09T08:10:16.570Z,8.20
2022-09-09T08:11:16.692Z,8.00
2022-09-09T08:12:16.553Z,8.30
2022-09-09T08:13:18.733Z,8.00
2022-09-09T08:14:16.553Z,6.60
2022-09-09T08:15:16.532Z,6.00
2022-09-09T08:16:16.556Z,6.60
2022-09-09T08:17:16.506Z,7.60
2022-09-09T08:18:16.549Z,7.20
2022-09-09T08:19:16.541Z,6.50
2022-09-09T08:20:16.489Z,5.30
2022-09-09T08:21:16.487Z,7.70
2022-09-09T08:22:16.462Z,6.70
2022-09-09T08:23:16.458Z,5.10
2022-09-09T08:24:16.450Z,5.50
2022-09-09T08:25:16.476Z,7.50
2022-09-09T08:26:16.453Z,6.60
2022-09-09T08:27:16.426Z,6.90
2022-09-09T08:28:16.419Z,5.80
2022-09-09T08:29:16.433Z,6.40
2022-09-09T08:30:16.431Z,4.90
2022-09-09T08:31:16.537Z,5.20
2022-09-09T08:32:16.390Z,5.40
2022-09-09T08:33:16.393Z,5.40
2022-09-09T08:34:16.378Z,8.20
2022-09-09T08:35:16.372Z,6.30
2022-09-09T08:36:16.378Z,6.60
2022-09-09T08:37:16.381Z,6.00
2022-09-09T08:38:16.358Z,6.20
2022-09-09T08:39:16.328Z,5.90
2022-09-09T08:40:16.360Z,5.30
2022-09-09T08:41:16.392Z,6.00
2022-09-09T08:42:16.300Z,5.20
2022-09-09T08:43:16.383Z,5.80
2022-09-09T08:44:16.282Z,5.60
2022-09-09T08:45:16.274Z,5.10
2022-09-09T08:46:25.625Z,6.70
2022-09-09T08:47:16.290Z,6.50
2022-09-09T08:48:16.306Z,6.10
2022-09-09T08:49:16.247Z,8.00
2022-09-09T08:50:16.238Z,6.30
2022-09-09T08:51:16.224Z,6.10
2022-09-09T08:52:16.213Z,5.80
2022-09-09T08:53:16.231Z,6.30
2022-09-09T08:54:21.919Z,5.90
2022-09-09T08:55:17.201Z,5.90
2022-09-09T08:56:16.194Z,7.60
2022-09-09T08:57:16.180Z,7.80
2022-09-09T08:58:16.219Z,6.20
2022-09-09T08:59:16.175Z,5.90
2022-09-09T09:00:16.191Z,9.80
2022-09-09T09:01:16.169Z,6.90
2022-09-09T09:02:16.910Z,7.70
2022-09-09T09:03:16.181Z,6.60
2022-09-09T09:04:16.203Z,6.80
2022-09-09T09:05:16.102Z,7.40
2022-09-09T09:06:16.112Z,6.40
2022-09-09T09:07:16.085Z,6.20
2022-09-09T09:08:16.085Z,6.30
2022-09-09T09:09:16.102Z,6.30
2022-09-09T09:10:39.923Z,8.10
2022-09-09T09:11:17.075Z,7.20
2022-09-09T09:12:16.055Z,6.50
2022-09-09T09:13:16.049Z,6.10
2022-09-09T09:14:16.071Z,7.20
2022-09-09T09:15:16.047Z,8.80
2022-09-09T09:16:16.632Z,6.50
2022-09-09T09:17:16.005Z,7.90
2022-09-09T09:18:16.002Z,7.60
2022-09-09T09:19:16.017Z,6.40
2022-09-09T09:20:16.006Z,8.30
2022-09-09T09:21:15.974Z,6.70
2022-09-09T09:22:15.971Z,8.70
2022-09-09T09:23:15.968Z,8.40
2022-09-09T09:24:19.734Z,5.70
2022-09-09T09:25:17.190Z,6.60
2022-09-09T09:26:15.943Z,5.90
2022-09-09T09:27:15.938Z,6.90
2022-09-09T09:28:15.925Z,7.40
2022-09-09T09:29:15.918Z,7.90
2022-09-09T09:30:26.734Z,6.70
2022-09-09T09:31:17.026Z,7.70
2022-09-09T09:32:15.886Z,8.70
2022-09-09T09:33:15.878Z,6.50
2022-09-09T09:34:15.873Z,7.00
2022-09-09T09:35:15.860Z,7.80
2022-09-09T09:36:15.876Z,6.60
2022-09-09T09:37:15.862Z,7.60
2022-09-09T09:40:16.812Z,7.40
2022-09-09T09:41:16.705Z,6.80
2022-09-09T09:42:17.839Z,6.30
2022-09-09T09:43:16.858Z,6.50
2022-09-09T09:44:15.802Z,6.80
2022-09-09T09:45:15.771Z,6.70
2022-09-09T09:46:18.028Z,7.10
2022-09-09T09:47:15.759Z,6.90
2022-09-09T09:48:15.775Z,6.70
2022-09-09T09:49:15.754Z,6.90
2022-09-09T09:50:15.731Z,6.30
2022-09-09T09:51:15.773Z,6.40
2022-09-09T09:52:15.718Z,5.90
2022-09-09T09:53:16.063Z,6.30
2022-09-09T09:54:15.692Z,7.40
2022-09-09T09:55:15.690Z,7.90
2022-09-09T09:56:15.683Z,6.50
2022-09-09T09:57:15.684Z,6.90
2022-09-09T09:58:17.950Z,6.00
2022-09-09T09:59:23.418Z,5.00
2022-09-09T10:00:16.693Z,5.40
2022-09-09T10:01:15.685Z,7.70
2022-09-09T10:02:15.649Z,6.60
2022-09-09T10:03:15.614Z,6.50
2022-09-09T10:04:15.650Z,6.60
2022-09-09T10:05:15.616Z,4.80
2022-09-09T10:06:16.120Z,7.10
2022-09-09T10:07:15.580Z,6.20
2022-09-09T10:08:15.577Z,6.80
2022-09-09T10:09:15.619Z,7.80
2022-09-09T10:10:16.173Z,8.90
2022-09-09T10:11:15.539Z,5.90
2022-09-09T10:12:15.547Z,7.00
2022-09-09T10:13:15.587Z,5.80
2022-09-09T10:14:15.540Z,7.50
2022-09-09T10:15:15.513Z,6.90
2022-09-09T10:16:15.579Z,8.40
2022-09-09T10:17:15.500Z,7.30
2022-09-09T10:18:15.491Z,6.00
2022-09-09T10:19:15.482Z,6.10
2022-09-09T10:20:15.513Z,6.30
2022-09-09T10:21:15.470Z,6.70
2022-09-09T10:22:15.452Z,6.50
2022-09-09T10:23:15.455Z,8.10
2022-09-09T10:24:15.433Z,6.20
2022-09-09T10:25:15.454Z,6.20
2022-09-09T10:26:15.432Z,6.00
2022-09-09T10:27:15.407Z,7.10
2022-09-09T10:28:15.438Z,7.00
2022-09-09T10:29:15.447Z,7.30
2022-09-09T10:30:15.394Z,6.80
2022-09-09T10:31:15.436Z,6.20
2022-09-09T10:32:15.398Z,7.10
2022-09-09T10:33:15.399Z,7.60
2022-09-09T10:34:15.366Z,6.80
2022-09-09T10:35:15.410Z,6.20
2022-09-09T10:36:15.353Z,6.80
2022-09-09T10:37:15.350Z,5.80
2022-09-09T10:38:15.344Z,6.00
2022-09-09T10:39:15.334Z,6.90
2022-09-09T10:40:15.410Z,7.70
2022-09-09T10:41:15.303Z,7.70
2022-09-09T10:42:15.332Z,5.50
2022-09-09T10:43:15.283Z,8.60
2022-09-09T10:44:15.272Z,6.50
2022-09-09T10:45:15.317Z,7.20
2022-09-09T10:46:15.334Z,7.30
2022-09-09T10:47:15.293Z,7.00
2022-09-09T10:48:15.263Z,8.60
2022-09-09T10:49:17.446Z,7.30
2022-09-09T10:50:16.236Z,6.60
2022-09-09T10:51:15.248Z,6.70
2022-09-09T10:52:15.210Z,6.00
2022-09-09T10:53:15.242Z,7.10
2022-09-09T10:54:15.219Z,8.00
2022-09-09T10:55:15.214Z,6.80
2022-09-09T10:56:15.168Z,8.00
2022-09-09T10:57:15.332Z,7.60
2022-09-09T10:58:15.195Z,6.60
2022-09-09T10:59:15.188Z,7.10
2022-09-09T11:00:15.149Z,7.20
2022-09-09T11:01:15.236Z,6.50
2022-09-09T11:02:15.150Z,6.60
2022-09-09T11:03:15.128Z,7.60
2022-09-09T11:04:15.191Z,6.80
2022-09-09T11:05:15.114Z,5.40
2022-09-09T11:06:15.233Z,7.20
2022-09-09T11:07:15.097Z,6.10
2022-09-09T11:08:15.127Z,7.30
2022-09-09T11:09:15.073Z,8.40
2022-09-09T11:10:15.073Z,6.90
2022-09-09T11:11:15.081Z,7.20
2022-09-09T11:12:15.071Z,7.30
2022-09-09T11:13:15.152Z,7.10
2022-09-09T11:14:15.098Z,7.30
2022-09-09T11:15:15.029Z,6.20
2022-09-09T11:16:15.149Z,5.50
2022-09-09T11:17:15.018Z,5.80
2022-09-09T11:18:15.007Z,6.10
2022-09-09T11:19:15.023Z,6.40
2022-09-09T11:20:15.026Z,6.90
2022-09-09T11:21:14.988Z,7.70
2022-09-09T11:22:14.969Z,6.40
2022-09-09T11:23:14.978Z,7.70
2022-09-09T11:24:15.029Z,6.40
2022-09-09T11:25:15.045Z,7.50
2022-09-09T11:26:14.966Z,6.50
2022-09-09T11:27:14.949Z,7.70
2022-09-09T11:28:14.981Z,8.60
2022-09-09T11:29:14.919Z,8.30
2022-09-09T11:30:23.300Z,7.60
2022-09-09T11:31:15.972Z,6.20
2022-09-09T11:32:14.916Z,6.20
2022-09-09T11:33:14.924Z,5.20
2022-09-09T11:34:14.881Z,7.10
2022-09-09T11:35:14.942Z,4.30
2022-09-09T11:36:14.883Z,5.70
2022-09-09T11:37:14.861Z,5.50
2022-09-09T11:38:14.871Z,5.20
2022-09-09T11:39:14.844Z,5.50
2022-09-09T11:40:14.893Z,5.30
2022-09-09T11:41:19.534Z,5.50
2022-09-09T11:42:15.814Z,4.40
2022-09-09T11:43:14.802Z,5.00
2022-09-09T11:44:14.824Z,4.60
2022-09-09T11:45:14.795Z,4.50
2022-09-09T11:46:14.815Z,4.80
2022-09-09T11:47:14.772Z,5.10
2022-09-09T11:48:14.770Z,5.00
2022-09-09T11:49:14.749Z,5.80
2022-09-09T11:50:14.792Z,4.30
2022-09-09T11:51:17.056Z,4.60
2022-09-09T11:52:14.724Z,4.80
2022-09-09T11:53:14.728Z,4.40
2022-09-09T11:54:14.723Z,3.80
2022-09-09T11:55:14.724Z,3.70
2022-09-09T11:56:14.761Z,4.00
2022-09-09T11:57:14.763Z,4.30
2022-09-09T11:58:15.743Z,3.90
2022-09-09T11:59:14.685Z,5.30
2022-09-09T12:00:14.684Z,3.90
2022-09-09T12:01:14.692Z,4.80
2022-09-09T12:02:14.704Z,4.50
2022-09-09T12:03:14.651Z,5.20
2022-09-09T12:04:17.482Z,4.30
2022-09-09T12:05:15.695Z,5.20
2022-09-09T12:06:14.619Z,5.10
2022-09-09T12:07:14.663Z,3.40
2022-09-09T12:08:14.611Z,5.80
2022-09-09T12:09:14.603Z,5.10
2022-09-09T12:10:14.590Z,5.20
2022-09-09T12:11:14.609Z,4.10
2022-09-09T12:12:14.613Z,5.60
2022-09-09T12:13:14.583Z,5.30
2022-09-09T12:14:15.240Z,5.50
2022-09-09T12:15:14.652Z,5.50
2022-09-09T12:16:14.628Z,4.20
2022-09-09T12:17:14.636Z,4.80
2022-09-09T12:18:14.525Z,4.20
2022-09-09T12:19:14.516Z,4.20
2022-09-09T12:20:14.509Z,7.30
2022-09-09T12:21:14.532Z,4.60
2022-09-09T12:22:14.518Z,3.30
2022-09-09T12:23:14.511Z,5.20
2022-09-09T12:24:14.560Z,4.70
2022-09-09T12:25:14.521Z,5.40
2022-09-09T12:26:15.047Z,5.80
2022-09-09T12:27:14.481Z,5.40
2022-09-09T12:28:14.443Z,4.10
2022-09-09T12:29:14.481Z,3.80
2022-09-09T12:30:14.468Z,3.50
2022-09-09T12:31:14.494Z,5.20
2022-09-09T12:32:14.422Z,4.60
2022-09-09T12:33:14.427Z,4.30
2022-09-09T12:34:14.408Z,4.40
2022-09-09T12:35:14.404Z,4.30
2022-09-09T12:36:14.611Z,6.10
2022-09-09T12:37:15.725Z,4.60
2022-09-09T12:38:14.647Z,2.90
2022-09-09T12:39:14.384Z,4.60
2022-09-09T12:40:14.391Z,4.40
2022-09-09T12:41:14.361Z,4.90
2022-09-09T12:42:14.382Z,3.70
2022-09-09T12:43:14.425Z,4.40
2022-09-09T12:44:14.303Z,3.90
2022-09-09T12:45:14.409Z,5.20
2022-09-09T12:46:14.352Z,4.00
2022-09-09T12:47:14.298Z,5.90
2022-09-09T12:48:14.287Z,4.00
2022-09-09T12:49:14.295Z,5.50
2022-09-09T12:50:14.267Z,4.90
2022-09-09T12:51:14.397Z,4.70
2022-09-09T12:52:14.263Z,4.10
2022-09-09T12:53:14.252Z,4.00
2022-09-09T12:54:14.248Z,2.70
2022-09-09T12:55:14.231Z,5.30
2022-09-09T12:56:14.274Z,4.80
2022-09-09T12:57:14.210Z,6.20
2022-09-09T12:58:14.227Z,4.50
2022-09-09T12:59:14.224Z,4.30
2022-09-09T13:00:14.179Z,4.40
2022-09-09T13:01:14.233Z,4.90
2022-09-09T13:02:14.233Z,3.80
2022-09-09T13:03:14.317Z,5.20
2022-09-09T13:04:14.145Z,4.80
2022-09-09T13:05:14.169Z,3.70
2022-09-09T13:06:14.139Z,5.80
2022-09-09T13:07:14.170Z,4.70
2022-09-09T13:08:14.142Z,4.40
2022-09-09T13:09:14.111Z,4.70
2022-09-09T13:10:18.032Z,3.90
2022-09-09T13:11:15.094Z,4.90
2022-09-09T13:12:14.080Z,4.20
2022-09-09T13:13:14.123Z,4.50
2022-09-09T13:14:14.057Z,5.40
2022-09-09T13:15:14.075Z,5.20
2022-09-09T13:16:14.087Z,4.10
2022-09-09T13:17:14.042Z,5.80
2022-09-09T13:18:14.037Z,5.30
2022-09-09T13:19:14.058Z,3.70
2022-09-09T13:20:14.072Z,4.80